Time;durP1;ratioP1;P1;durP2;ratioP2;P2;SDS_P1;SDS_P2;PMS_P1;PMS_P2;Temp;Humidity;BMP_temperature;BMP_pressure;BME280_temperature;BME280_humidity;BME280_pressure;Samples;Min_cycle;Max_cycle;Signal;HPM_P1;HPM_P2
2024/04/02 00:00:46;;;;;;;16.08;14.35;;;7.50;99.90;;;;;;4968995;28;20045;-84
2024/04/02 00:03:13;;;;;;;16.95;15.25;;;7.50;99.90;;;;;;4971173;28;20119;-83
2024/04/02 00:05:40;;;;;;;17.25;15.45;;;7.50;99.90;;;;;;4984166;28;20664;-83
2024/04/02 00:08:08;;;;;;;17.23;15.18;;;7.40;99.90;;;;;;4985923;28;20050;-83
2024/04/02 00:10:35;;;;;;;14.95;13.60;;;7.40;99.90;;;;;;4999869;28;20155;-83
2024/04/02 00:13:01;;;;;;;15.38;13.48;;;7.40;99.90;;;;;;4970976;28;20457;-83
2024/04/02 00:15:27;;;;;;;13.82;12.40;;;7.40;99.90;;;;;;4985496;28;20049;-83
2024/04/02 00:17:53;;;;;;;14.52;13.02;;;7.20;99.90;;;;;;4966597;28;20050;-83
2024/04/02 00:20:20;;;;;;;13.60;12.20;;;7.30;99.90;;;;;;4968294;28;20046;-82
2024/04/02 00:22:46;;;;;;;14.60;12.27;;;7.30;99.90;;;;;;4986333;28;20083;-83
2024/04/02 00:25:12;;;;;;;13.77;12.27;;;7.20;99.90;;;;;;4971028;28;20058;-85
2024/04/02 00:27:38;;;;;;;14.65;13.25;;;7.20;99.90;;;;;;5003529;28;20045;-83
2024/04/02 00:30:05;;;;;;;13.70;12.23;;;7.20;99.90;;;;;;4967420;28;20052;-82
2024/04/02 00:32:31;;;;;;;13.27;10.95;;;7.10;99.90;;;;;;4984823;28;20044;-82
2024/04/02 00:34:57;;;;;;;15.30;13.70;;;7.10;99.90;;;;;;4995717;28;20379;-83
2024/04/02 00:37:22;;;;;;;12.55;11.10;;;7.00;99.90;;;;;;5018259;28;20046;-83
2024/04/02 00:39:48;;;;;;;12.40;11.20;;;7.00;99.90;;;;;;4981629;28;20151;-83
2024/04/02 00:42:19;;;;;;;13.55;11.38;;;6.90;99.90;;;;;;4988534;28;20042;-83
2024/04/02 00:44:44;;;;;;;14.63;12.07;;;6.80;99.90;;;;;;4967144;28;20042;-83
2024/04/02 00:47:12;;;;;;;12.52;11.25;;;6.90;99.90;;;;;;4971738;28;20045;-82
2024/04/02 00:49:39;;;;;;;14.27;12.82;;;6.90;99.90;;;;;;4967241;28;20046;-83
2024/04/02 00:52:05;;;;;;;17.02;15.38;;;6.90;99.90;;;;;;4969226;28;20107;-83
2024/04/02 00:54:33;;;;;;;15.55;14.05;;;6.90;99.90;;;;;;4970683;28;20034;-84
2024/04/02 00:56:59;;;;;;;18.25;16.35;;;6.90;99.90;;;;;;4985283;28;20718;-83
2024/04/02 00:59:25;;;;;;;16.00;14.48;;;7.00;99.90;;;;;;4982613;28;20053;-83
2024/04/02 01:01:51;;;;;;;15.65;14.25;;;7.00;99.90;;;;;;4961510;28;20053;-83
2024/04/02 01:04:19;;;;;;;16.83;15.10;;;7.10;99.90;;;;;;4972885;28;20046;-83
2024/04/02 01:06:45;;;;;;;16.42;14.90;;;7.20;99.90;;;;;;4989577;28;20038;-82
2024/04/02 01:09:13;;;;;;;17.55;15.63;;;7.20;99.90;;;;;;4990642;28;20056;-83
2024/04/02 01:11:40;;;;;;;16.50;14.90;;;7.20;99.90;;;;;;4988535;28;20038;-84
2024/04/02 01:14:06;;;;;;;18.23;16.52;;;7.30;99.90;;;;;;5007054;28;20069;-83
2024/04/02 01:16:32;;;;;;;17.23;15.52;;;7.30;99.90;;;;;;4973540;28;20069;-83
2024/04/02 01:18:58;;;;;;;17.02;15.27;;;7.40;99.90;;;;;;4989051;28;20050;-83
2024/04/02 01:21:24;;;;;;;17.45;15.77;;;7.40;99.90;;;;;;4988788;28;20172;-83
2024/04/02 01:23:50;;;;;;;16.63;14.90;;;7.50;99.90;;;;;;4973761;28;20143;-84
2024/04/02 01:26:15;;;;;;;15.82;14.25;;;7.50;99.90;;;;;;4988874;28;20124;-83
2024/04/02 01:28:41;;;;;;;13.77;12.35;;;7.50;99.90;;;;;;4968094;28;20446;-84
2024/04/02 01:31:07;;;;;;;14.15;12.55;;;7.60;99.90;;;;;;4991878;28;20057;-84
2024/04/02 01:33:35;;;;;;;15.00;11.55;;;7.60;99.90;;;;;;4971603;28;20124;-83
2024/04/02 01:36:01;;;;;;;12.27;11.13;;;7.60;99.90;;;;;;4973312;28;20526;-82
2024/04/02 01:38:27;;;;;;;14.35;11.90;;;7.60;99.90;;;;;;4985021;28;20053;-83
2024/04/02 01:40:56;;;;;;;13.00;11.32;;;7.70;99.90;;;;;;4961118;28;20060;-84
2024/04/02 01:43:22;;;;;;;12.48;10.20;;;7.70;99.90;;;;;;4966308;28;20044;-83
2024/04/02 01:45:47;;;;;;;11.35;9.98;;;7.70;99.90;;;;;;4974937;28;20050;-84
2024/04/02 01:48:13;;;;;;;11.18;10.05;;;7.70;99.90;;;;;;4971878;28;20038;-84
2024/04/02 01:50:39;;;;;;;11.63;9.63;;;7.70;99.90;;;;;;4991759;28;20034;-83
2024/04/02 01:53:05;;;;;;;10.10;9.10;;;7.70;99.90;;;;;;4974722;28;20137;-83
2024/04/02 01:55:30;;;;;;;10.55;9.45;;;7.70;99.90;;;;;;4990100;28;20057;-83
2024/04/02 01:57:56;;;;;;;10.93;9.65;;;7.70;99.90;;;;;;4973886;28;20049;-84
2024/04/02 02:00:22;;;;;;;11.00;9.48;;;7.70;99.90;;;;;;4971203;28;20495;-83
2024/04/02 02:02:50;;;;;;;10.48;9.48;;;7.70;99.90;;;;;;4988088;28;20050;-83
2024/04/02 02:05:16;;;;;;;10.50;9.40;;;7.70;99.90;;;;;;4972358;28;20137;-84
2024/04/02 02:07:41;;;;;;;12.45;9.70;;;7.60;99.90;;;;;;4972420;28;20121;-83
2024/04/02 02:10:07;;;;;;;10.70;9.10;;;7.50;99.90;;;;;;4970969;28;20122;-84
2024/04/02 02:12:33;;;;;;;9.60;8.70;;;7.60;99.90;;;;;;4966913;28;20046;-83
2024/04/02 02:14:59;;;;;;;9.98;8.70;;;7.60;99.90;;;;;;4972561;28;20041;-84
2024/04/02 02:17:25;;;;;;;10.30;9.30;;;7.60;99.90;;;;;;4968552;28;20073;-83
2024/04/02 02:19:50;;;;;;;10.70;9.60;;;7.60;99.90;;;;;;4973982;28;20045;-82
2024/04/02 02:22:16;;;;;;;11.52;9.23;;;7.60;99.90;;;;;;4986617;28;20617;-83
2024/04/02 02:24:42;;;;;;;9.82;8.80;;;7.50;99.90;;;;;;4988247;28;20045;-83
2024/04/02 02:27:10;;;;;;;10.10;9.13;;;7.60;99.90;;;;;;4989776;28;20038;-83
2024/04/02 02:29:36;;;;;;;9.55;8.60;;;7.50;99.90;;;;;;4968522;28;20566;-83
2024/04/02 02:32:03;;;;;;;10.82;9.32;;;7.50;99.90;;;;;;4975826;28;20125;-83
2024/04/02 02:34:29;;;;;;;10.50;9.38;;;7.40;99.90;;;;;;4965756;28;20152;-83
2024/04/02 02:36:55;;;;;;;10.75;9.63;;;7.50;99.90;;;;;;4968678;28;20050;-83
2024/04/02 02:39:20;;;;;;;11.70;9.57;;;7.50;99.90;;;;;;4989155;28;20045;-83
2024/04/02 02:41:47;;;;;;;13.55;10.98;;;7.40;99.90;;;;;;4971211;28;20060;-83
2024/04/02 02:44:13;;;;;;;11.20;10.00;;;7.40;99.90;;;;;;4976550;28;20038;-83
2024/04/02 02:46:38;;;;;;;12.43;11.13;;;7.40;99.90;;;;;;4970581;28;20049;-84
2024/04/02 02:49:04;;;;;;;12.15;9.90;;;7.40;99.90;;;;;;4990135;28;20230;-83
2024/04/02 02:51:30;;;;;;;12.32;11.05;;;7.40;99.90;;;;;;4970995;28;20193;-83
2024/04/02 02:53:56;;;;;;;13.75;11.30;;;7.40;99.90;;;;;;4975039;28;20033;-84
2024/04/02 02:56:22;;;;;;;12.95;10.82;;;7.40;99.90;;;;;;4985396;28;20050;-83
2024/04/02 02:58:51;;;;;;;12.52;10.35;;;7.30;99.90;;;;;;4988916;28;20082;-84
2024/04/02 03:01:17;;;;;;;12.80;11.60;;;7.40;99.90;;;;;;4978501;28;20072;-83
2024/04/02 03:03:47;;;;;;;13.70;11.35;;;7.30;99.90;;;;;;4969565;28;20054;-83
2024/04/02 03:06:13;;;;;;;12.88;11.35;;;7.30;99.90;;;;;;4974115;28;20056;-83
2024/04/02 03:08:39;;;;;;;12.88;11.63;;;7.30;99.90;;;;;;4981775;28;20050;-84
2024/04/02 03:11:06;;;;;;;12.75;11.52;;;7.20;99.90;;;;;;4968648;28;20081;-84
2024/04/02 03:13:33;;;;;;;12.10;10.80;;;7.20;99.90;;;;;;4970366;28;20050;-84
2024/04/02 03:16:00;;;;;;;11.70;10.60;;;7.20;99.90;;;;;;4974215;28;20100;-83
2024/04/02 03:18:26;;;;;;;11.65;10.50;;;7.20;99.90;;;;;;4972008;28;20041;-83
2024/04/02 03:20:52;;;;;;;14.02;12.05;;;7.20;99.90;;;;;;4986740;28;20049;-83
2024/04/02 03:23:19;;;;;;;13.10;11.80;;;7.10;99.90;;;;;;4972439;28;20052;-83
2024/04/02 03:25:56;;;;;;;12.00;10.70;;;7.10;99.90;;;;;;4968967;28;20038;-84
2024/04/02 03:28:23;;;;;;;13.07;11.70;;;7.10;99.90;;;;;;5021051;28;20053;-83
2024/04/02 03:30:49;;;;;;;12.02;10.77;;;7.10;99.90;;;;;;4970274;28;20038;-83
2024/04/02 03:33:15;;;;;;;11.07;9.98;;;7.10;99.90;;;;;;4988270;28;20128;-83
2024/04/02 03:35:41;;;;;;;12.57;10.80;;;7.10;99.90;;;;;;4969163;28;20506;-84
2024/04/02 03:38:13;;;;;;;12.77;11.43;;;7.10;99.90;;;;;;4971534;28;20056;-83
2024/04/02 03:40:40;;;;;;;12.55;11.23;;;7.00;99.90;;;;;;4973204;28;20108;-84
2024/04/02 03:43:06;;;;;;;12.27;10.95;;;7.00;99.90;;;;;;4987100;28;20042;-84
2024/04/02 03:45:40;;;;;;;12.10;10.90;;;7.00;99.90;;;;;;4984710;28;20061;-83
2024/04/02 03:48:07;;;;;;;12.10;10.88;;;7.00;99.90;;;;;;4987282;28;20050;-84
2024/04/02 03:50:38;;;;;;;11.70;10.50;;;7.00;99.90;;;;;;4971528;28;20045;-84
2024/04/02 03:53:04;;;;;;;;;;;7.00;99.90;;;;;;4987418;28;20450;-84
2024/04/02 03:55:34;;;;;;;13.20;10.68;;;7.00;99.90;;;;;;4984912;28;19963;-84
2024/04/02 03:58:00;;;;;;;11.60;10.52;;;7.00;99.90;;;;;;4985772;28;20065;-83
2024/04/02 04:00:27;;;;;;;14.05;10.60;;;6.90;99.90;;;;;;4986981;28;20057;-84
2024/04/02 04:02:54;;;;;;;12.40;11.02;;;7.10;99.90;;;;;;4977335;28;20506;-83
2024/04/02 04:05:20;;;;;;;13.52;10.80;;;7.00;99.90;;;;;;4969575;28;20799;-83
2024/04/02 04:07:45;;;;;;;11.13;10.05;;;7.00;99.90;;;;;;4967448;28;20499;-83
2024/04/02 04:10:11;;;;;;;13.15;10.88;;;7.00;99.90;;;;;;4973526;28;20050;-83
2024/04/02 04:12:37;;;;;;;12.77;10.18;;;7.00;99.90;;;;;;4983914;28;20073;-83
2024/04/02 04:15:03;;;;;;;11.75;10.52;;;7.00;99.90;;;;;;4972675;28;20042;-84
2024/04/02 04:17:29;;;;;;;14.35;10.75;;;7.00;99.90;;;;;;4972696;28;20573;-83
2024/04/02 04:19:55;;;;;;;12.57;10.63;;;7.00;99.90;;;;;;4972585;28;20145;-84
2024/04/02 04:22:21;;;;;;;13.50;10.55;;;7.00;99.90;;;;;;4989019;28;20045;-82
2024/04/02 04:25:02;;;;;;;10.50;9.40;;;7.00;99.90;;;;;;4973861;28;20111;-82
2024/04/02 04:27:36;;;;;;;10.63;9.00;;;7.00;99.90;;;;;;4970967;28;20459;-82
2024/04/02 04:30:04;;;;;;;11.27;9.63;;;6.90;99.90;;;;;;4989455;28;20049;-83
2024/04/02 04:32:30;;;;;;;10.98;8.95;;;6.90;99.90;;;;;;4972470;28;20045;-83
2024/04/02 04:34:56;;;;;;;12.32;9.65;;;7.00;99.90;;;;;;4972566;28;20509;-83
2024/04/02 04:37:21;;;;;;;11.85;10.10;;;6.90;99.90;;;;;;4986809;28;20074;-83
2024/04/02 04:39:47;;;;;;;10.52;8.98;;;6.90;99.90;;;;;;4969809;28;20054;-82
2024/04/02 04:42:13;;;;;;;11.30;9.95;;;6.90;99.90;;;;;;4982926;28;20185;-83
2024/04/02 04:44:43;;;;;;;11.65;10.18;;;6.90;99.90;;;;;;4988323;28;20046;-83
2024/04/02 04:47:10;;;;;;;12.02;9.60;;;6.90;99.90;;;;;;4968842;28;20046;-82
2024/04/02 04:49:35;;;;;;;12.05;9.68;;;6.90;99.90;;;;;;4968425;28;20038;-82
2024/04/02 04:52:01;;;;;;;11.75;10.45;;;7.00;99.90;;;;;;4984677;28;20049;-82
2024/04/02 04:54:27;;;;;;;11.52;10.25;;;6.90;99.90;;;;;;4986145;28;20130;-82
2024/04/02 04:56:53;;;;;;;11.05;10.05;;;6.90;99.90;;;;;;4987818;28;20034;-82
2024/04/02 04:59:18;;;;;;;12.38;10.90;;;6.90;99.90;;;;;;4984522;28;20050;-82
2024/04/02 05:01:44;;;;;;;12.35;11.15;;;7.00;99.90;;;;;;4982717;28;20050;-82
2024/04/02 05:04:10;;;;;;;11.13;10.02;;;6.80;99.90;;;;;;4983277;28;20133;-83
2024/04/02 05:06:41;;;;;;;12.00;10.75;;;7.00;99.90;;;;;;4983752;28;20084;-82
2024/04/02 05:09:13;;;;;;;11.18;10.07;;;6.90;99.90;;;;;;4979053;28;20057;-82
2024/04/02 05:11:40;;;;;;;10.75;9.68;;;6.80;99.90;;;;;;5017307;28;20054;-83
2024/04/02 05:14:06;;;;;;;12.32;11.05;;;6.90;99.90;;;;;;4966797;28;20050;-83
2024/04/02 05:16:34;;;;;;;11.75;10.57;;;6.90;99.90;;;;;;4964721;28;20104;-82
2024/04/02 05:19:01;;;;;;;12.52;10.77;;;6.80;99.90;;;;;;4980936;28;20077;-83
2024/04/02 05:21:27;;;;;;;11.63;10.52;;;6.90;99.90;;;;;;5016167;28;20545;-82
2024/04/02 05:23:53;;;;;;;12.45;11.15;;;6.90;99.90;;;;;;4995296;28;20057;-83
2024/04/02 05:26:19;;;;;;;11.65;10.45;;;7.00;99.90;;;;;;4977943;28;20038;-83
2024/04/02 05:28:45;;;;;;;12.00;10.80;;;6.90;99.90;;;;;;4971497;28;20056;-82
2024/04/02 05:31:17;;;;;;;12.55;11.45;;;6.90;99.90;;;;;;4977977;28;20050;-83
2024/04/02 05:33:43;;;;;;;13.80;12.45;;;7.00;99.90;;;;;;4987128;28;20042;-83
2024/04/02 05:36:09;;;;;;;13.43;12.02;;;6.90;99.90;;;;;;4984559;28;20521;-82
2024/04/02 05:38:35;;;;;;;14.30;12.90;;;7.00;99.90;;;;;;5016291;28;20046;-83
2024/04/02 05:41:00;;;;;;;13.52;12.30;;;7.00;99.90;;;;;;4985556;28;20072;-83
2024/04/02 05:43:27;;;;;;;13.55;12.18;;;7.00;99.90;;;;;;4996860;28;20568;-83
2024/04/02 05:45:53;;;;;;;13.75;12.32;;;7.10;99.90;;;;;;4970346;28;20042;-83
2024/04/02 05:48:19;;;;;;;14.70;13.32;;;7.10;99.90;;;;;;4982186;28;20093;-82
2024/04/02 05:50:55;;;;;;;14.77;13.25;;;7.00;99.90;;;;;;4970934;28;20491;-84
2024/04/02 05:53:21;;;;;;;14.68;12.70;;;7.10;99.90;;;;;;4990974;28;20099;-79
2024/04/02 05:55:50;;;;;;;14.35;12.82;;;7.20;99.90;;;;;;4990171;28;20053;-82
2024/04/02 05:58:18;;;;;;;14.10;12.80;;;7.30;99.90;;;;;;4984425;28;20624;-84
2024/04/02 06:00:50;;;;;;;14.45;12.95;;;7.30;99.90;;;;;;4975254;28;20034;-84
2024/04/02 06:04:03;;;;;;;13.98;12.68;;;7.40;99.90;;;;;;4973297;28;20493;-84
2024/04/02 06:10:19;;;;;;;14.63;13.13;;;7.30;99.90;;;;;;4934600;28;20050;-90
2024/04/02 06:12:47;;;;;;;13.77;12.48;;;7.50;99.90;;;;;;4976637;28;20046;-89
2024/04/02 06:15:17;;;;;;;14.40;13.00;;;7.60;99.90;;;;;;4989911;28;20773;-89
2024/04/02 06:17:45;;;;;;;13.88;12.30;;;7.60;99.90;;;;;;4989569;28;20948;-87
2024/04/02 06:20:11;;;;;;;13.80;11.68;;;7.70;99.90;;;;;;4991621;28;20681;-88
2024/04/02 06:22:40;;;;;;;13.88;12.50;;;7.80;99.90;;;;;;4976111;28;20124;-89
2024/04/02 06:25:06;;;;;;;12.82;11.52;;;7.90;99.90;;;;;;4991983;28;20121;-90
2024/04/02 06:27:31;;;;;;;13.85;12.45;;;8.00;99.90;;;;;;4988931;28;20188;-88
2024/04/02 06:29:57;;;;;;;12.82;11.20;;;8.10;99.90;;;;;;4979378;28;20088;-86
2024/04/02 06:32:23;;;;;;;13.18;11.80;;;8.10;99.90;;;;;;4989899;28;20050;-86
2024/04/02 06:34:49;;;;;;;13.25;11.45;;;8.20;99.90;;;;;;4993127;28;20522;-89
2024/04/02 06:37:15;;;;;;;11.70;10.50;;;8.30;99.90;;;;;;4975099;28;20049;-90
2024/04/02 06:39:56;;;;;;;13.38;11.02;;;8.30;99.90;;;;;;4974562;28;20135;-87
2024/04/02 06:42:23;;;;;;;12.10;10.77;;;8.30;99.90;;;;;;4990656;28;20569;-88
2024/04/02 06:44:51;;;;;;;11.15;10.00;;;8.40;99.90;;;;;;4971954;28;20044;-87
2024/04/02 06:47:23;;;;;;;11.65;10.45;;;8.30;99.90;;;;;;5008569;28;20403;-90
2024/04/02 06:49:49;;;;;;;11.40;10.02;;;8.40;99.90;;;;;;4975412;28;20078;-89
2024/04/02 06:52:18;;;;;;;10.88;9.77;;;8.40;99.90;;;;;;4992321;28;20092;-88
2024/04/02 06:54:46;;;;;;;11.00;9.90;;;8.50;99.90;;;;;;4990818;28;20785;-90
2024/04/02 06:57:14;;;;;;;11.23;10.13;;;8.50;99.90;;;;;;4976307;28;20529;-89
2024/04/02 06:59:40;;;;;;;11.02;9.93;;;8.50;99.90;;;;;;4988228;28;20038;-89
2024/04/02 07:02:06;;;;;;;13.40;9.82;;;8.60;99.90;;;;;;4990707;28;20049;-89
2024/04/02 07:04:32;;;;;;;12.13;9.02;;;8.60;99.90;;;;;;4972983;28;20271;-87
2024/04/02 07:07:00;;;;;;;12.40;9.55;;;8.70;99.90;;;;;;4977088;28;20125;-91
2024/04/02 07:09:30;;;;;;;13.13;9.23;;;8.80;99.90;;;;;;4990561;28;20045;-88
2024/04/02 07:11:57;;;;;;;11.40;10.05;;;8.80;99.90;;;;;;4984128;28;20059;-88
2024/04/02 07:14:26;;;;;;;10.13;8.77;;;8.90;99.90;;;;;;4952970;28;20081;-91
2024/04/02 07:16:55;;;;;;;9.75;8.82;;;8.90;99.90;;;;;;4970630;28;20047;-90
2024/04/02 07:19:23;;;;;;;11.13;8.43;;;8.90;99.90;;;;;;4966332;28;20158;-89
2024/04/02 07:21:55;;;;;;;10.32;8.70;;;9.00;99.90;;;;;;4969173;28;20050;-85
2024/04/02 07:24:26;;;;;;;11.25;8.18;;;9.00;99.90;;;;;;4967937;28;20055;-90
2024/04/02 07:27:10;;;;;;;11.65;7.85;;;9.10;99.90;;;;;;4985097;28;20829;-90
2024/04/02 07:29:42;;;;;;;10.98;8.27;;;9.10;99.90;;;;;;4954229;28;20046;-89
2024/04/02 07:32:11;;;;;;;11.45;8.23;;;9.10;99.90;;;;;;4967409;28;20077;-88
2024/04/02 07:34:39;;;;;;;10.93;8.05;;;9.20;99.90;;;;;;4969373;28;20121;-88
2024/04/02 07:37:05;;;;;;;10.30;7.68;;;9.30;99.90;;;;;;4935991;28;20526;-88
2024/04/02 07:39:31;;;;;;;9.85;8.02;;;9.30;99.90;;;;;;4937567;28;20114;-86
2024/04/02 07:41:56;;;;;;;9.95;7.88;;;9.30;99.90;;;;;;4985553;28;20140;-88
2024/04/02 07:44:27;;;;;;;10.77;7.97;;;9.40;99.90;;;;;;4986936;28;20050;-91
2024/04/02 07:46:53;;;;;;;13.13;8.20;;;9.40;99.90;;;;;;4977794;28;20038;-91
2024/04/02 07:49:19;;;;;;;10.52;7.38;;;9.40;99.90;;;;;;4974108;28;20042;-88
2024/04/02 07:51:46;;;;;;;9.13;6.90;;;9.50;99.90;;;;;;4973202;28;20030;-87
2024/04/02 07:54:13;;;;;;;10.15;7.32;;;9.50;99.90;;;;;;4991576;28;20587;-87
2024/04/02 07:56:39;;;;;;;11.57;7.47;;;9.50;99.90;;;;;;4989599;28;20045;-89
2024/04/02 07:59:05;;;;;;;9.50;7.10;;;9.50;99.90;;;;;;4973245;28;20037;-88
2024/04/02 08:01:31;;;;;;;10.18;7.05;;;9.60;99.90;;;;;;4975913;28;20045;-87
2024/04/02 08:03:56;;;;;;;9.80;7.28;;;9.50;99.90;;;;;;4973955;28;20095;-89
2024/04/02 08:06:22;;;;;;;12.45;7.45;;;9.60;99.90;;;;;;4977165;28;20073;-88
2024/04/02 08:08:51;;;;;;;10.05;7.35;;;9.60;99.90;;;;;;4987926;28;20050;-90
2024/04/02 08:11:17;;;;;;;12.88;7.97;;;9.60;99.90;;;;;;4972450;28;20052;-89
2024/04/02 08:13:43;;;;;;;12.85;7.43;;;9.60;99.90;;;;;;5007334;28;20042;-90
2024/04/02 08:16:08;;;;;;;12.13;7.50;;;9.70;99.90;;;;;;4989815;28;20074;-90
2024/04/02 08:18:36;;;;;;;10.93;7.03;;;9.70;99.90;;;;;;4993489;28;20030;-87
2024/04/02 08:21:02;;;;;;;10.70;7.63;;;9.70;99.90;;;;;;4986265;28;20045;-88
2024/04/02 08:23:28;;;;;;;10.98;7.45;;;9.80;99.90;;;;;;4975574;28;20080;-90
2024/04/02 08:25:54;;;;;;;10.43;7.47;;;9.80;99.90;;;;;;4974804;28;20042;-89
2024/04/02 08:28:20;;;;;;;10.93;7.40;;;9.90;99.90;;;;;;4988463;28;20115;-91
2024/04/02 08:30:46;;;;;;;9.98;7.03;;;9.90;99.90;;;;;;4976537;28;20099;-90
2024/04/02 08:33:32;;;;;;;9.77;6.72;;;9.90;99.90;;;;;;4988728;28;20053;-90
2024/04/02 08:35:59;;;;;;;8.60;6.85;;;10.00;99.90;;;;;;5022099;28;20053;-86
2024/04/02 08:38:24;;;;;;;10.13;6.53;;;9.90;99.90;;;;;;4970504;28;20038;-90
2024/04/02 08:41:07;;;;;;;11.45;6.32;;;10.10;99.90;;;;;;5008990;28;20054;-88
2024/04/02 08:43:47;;;;;;;15.32;7.70;;;10.10;99.90;;;;;;4945732;28;20054;-87
2024/04/02 08:46:51;;;;;;;11.68;7.20;;;10.20;99.90;;;;;;4974912;28;20130;-87
2024/04/02 08:49:19;;;;;;;12.88;7.82;;;10.10;99.90;;;;;;4946373;28;20057;-89
2024/04/02 08:51:49;;;;;;;13.82;8.07;;;10.10;99.90;;;;;;4933801;28;20412;-88
2024/04/02 08:54:17;;;;;;;14.57;8.27;;;10.20;99.90;;;;;;4952976;28;20539;-92
2024/04/02 08:56:43;;;;;;;15.95;8.48;;;10.20;99.90;;;;;;4944359;28;20047;-93
2024/04/02 08:59:09;;;;;;;15.32;9.43;;;10.30;99.90;;;;;;4944803;28;20641;-88
2024/04/02 09:01:36;;;;;;;13.57;8.98;;;10.40;99.90;;;;;;4980620;28;20050;-88
2024/04/02 09:04:05;;;;;;;17.45;10.10;;;10.40;99.90;;;;;;4947913;28;20059;-90
2024/04/02 09:06:44;;;;;;;21.38;9.98;;;10.50;99.90;;;;;;4933925;28;20043;-91
2024/04/02 09:09:27;;;;;;;13.20;9.52;;;10.50;99.90;;;;;;4973289;28;20092;-91
2024/04/02 09:12:12;;;;;;;13.82;10.13;;;10.60;99.90;;;;;;4974831;28;20050;-87
2024/04/02 09:15:04;;;;;;;14.93;9.38;;;10.60;99.90;;;;;;4987335;28;20053;-88
2024/04/02 09:17:43;;;;;;;11.15;8.75;;;10.70;99.90;;;;;;4994843;28;20402;-88
2024/04/02 09:20:13;;;;;;;13.50;8.55;;;10.70;99.90;;;;;;4974210;28;20177;-91
2024/04/02 09:22:39;;;;;;;11.82;8.05;;;10.80;99.90;;;;;;4975977;28;20041;-89
2024/04/02 09:25:07;;;;;;;13.23;7.97;;;10.80;99.90;;;;;;4990614;28;20039;-87
2024/04/02 09:27:33;;;;;;;12.77;8.27;;;10.80;99.90;;;;;;4978521;28;20038;-91
2024/04/02 09:30:06;;;;;;;13.60;7.82;;;10.80;99.90;;;;;;5028413;28;20052;-92
2024/04/02 09:32:36;;;;;;;14.10;8.30;;;10.80;99.90;;;;;;4975085;28;21322;-89
2024/04/02 09:35:08;;;;;;;;;;;10.90;99.90;;;;;;4983391;28;20034;-90
2024/04/02 09:37:35;;;;;;;14.45;8.40;;;10.90;99.90;;;;;;4988120;28;20333;-91
2024/04/02 09:40:03;;;;;;;16.90;9.13;;;10.90;99.90;;;;;;4976613;28;20078;-90
2024/04/02 09:42:33;;;;;;;15.00;9.30;;;10.90;99.90;;;;;;4975688;28;20077;-92
2024/04/02 09:45:00;;;;;;;13.70;9.10;;;10.80;99.90;;;;;;4976091;28;20479;-90
2024/04/02 09:47:29;;;;;;;11.77;9.50;;;10.80;99.90;;;;;;4978008;28;20515;-92
2024/04/02 09:49:56;;;;;;;15.07;9.93;;;10.90;99.90;;;;;;4976430;28;20056;-92
2024/04/02 09:52:25;;;;;;;13.82;10.02;;;10.90;99.90;;;;;;5006895;28;20046;-92
2024/04/02 09:54:53;;;;;;;14.65;10.25;;;11.00;99.90;;;;;;4992036;28;20077;-91
2024/04/02 09:57:21;;;;;;;13.07;9.48;;;11.10;99.90;;;;;;4975138;28;20058;-89
2024/04/02 09:59:47;;;;;;;17.02;10.38;;;11.10;99.90;;;;;;4994413;28;20069;-89
2024/04/02 10:02:21;;;;;;;13.82;9.25;;;11.20;99.90;;;;;;4992183;28;20065;-91
2024/04/02 10:04:50;;;;;;;14.15;9.20;;;11.30;99.90;;;;;;4978860;28;20053;-89
2024/04/02 10:07:23;;;;;;;12.25;9.43;;;11.30;99.90;;;;;;4978460;28;20138;-90
2024/04/02 10:10:06;;;;;;;12.30;8.75;;;11.40;99.90;;;;;;5007162;28;20053;-91
2024/04/02 10:12:33;;;;;;;14.80;9.77;;;11.40;99.90;;;;;;4992715;28;20514;-89
2024/04/02 10:15:12;;;;;;;11.35;8.57;;;11.40;99.90;;;;;;4979200;28;20037;-90
2024/04/02 10:17:39;;;;;;;13.85;10.48;;;11.40;99.90;;;;;;5007229;28;20046;-90
2024/04/02 10:20:27;;;;;;;15.52;10.48;;;11.30;99.90;;;;;;4995331;28;20041;-90
2024/04/02 10:22:53;;;;;;;13.57;9.15;;;11.40;99.90;;;;;;4977568;28;20052;-91
2024/04/02 10:25:20;;;;;;;14.10;8.85;;;11.40;99.90;;;;;;4975598;28;20109;-92
2024/04/02 10:27:49;;;;;;;13.10;9.13;;;11.40;99.90;;;;;;4976976;28;20319;-88
2024/04/02 10:30:20;;;;;;;14.45;10.40;;;11.50;99.90;;;;;;5006963;28;20041;-93
2024/04/02 10:32:47;;;;;;;14.10;9.13;;;11.50;99.90;;;;;;4992302;28;20038;-90
2024/04/02 10:35:25;;;;;;;16.10;10.07;;;11.50;99.90;;;;;;4975900;28;20046;-87
2024/04/02 10:37:57;;;;;;;12.18;9.52;;;11.50;99.90;;;;;;4989812;28;20080;-90
2024/04/02 10:40:25;;;;;;;13.57;10.27;;;11.60;99.90;;;;;;4991651;28;20041;-88
2024/04/02 10:42:53;;;;;;;14.90;9.43;;;11.70;99.90;;;;;;4990441;28;20112;-89
2024/04/02 10:45:20;;;;;;;13.45;9.30;;;11.80;99.90;;;;;;4995280;28;20060;-92
2024/04/02 10:48:01;;;;;;;10.57;9.05;;;11.90;99.90;;;;;;4992760;28;20053;-91
2024/04/02 10:50:27;;;;;;;13.13;9.00;;;12.00;99.90;;;;;;4974886;28;20045;-91
2024/04/02 10:53:07;;;;;;;13.82;8.77;;;12.10;99.90;;;;;;4978301;28;20402;-92
2024/04/02 10:55:33;;;;;;;11.30;8.40;;;12.20;99.90;;;;;;4977204;28;20046;-93
2024/04/02 10:58:00;;;;;;;11.77;7.82;;;12.30;99.90;;;;;;4989954;28;20050;-90
2024/04/02 11:00:27;;;;;;;12.85;6.57;;;12.50;99.90;;;;;;4993853;28;20045;-90
2024/04/02 11:02:55;;;;;;;9.77;6.22;;;12.60;99.90;;;;;;4977293;28;20562;-91
2024/04/02 11:05:21;;;;;;;12.68;6.85;;;12.60;99.90;;;;;;4974809;28;20042;-92
2024/04/02 11:07:48;;;;;;;15.40;6.75;;;12.60;99.90;;;;;;5024658;28;20112;-91
2024/04/02 11:10:14;;;;;;;10.10;7.05;;;12.60;99.90;;;;;;4978939;28;20046;-91
2024/04/02 11:12:40;;;;;;;15.60;7.35;;;12.60;99.90;;;;;;4988466;28;20062;-90
2024/04/02 11:15:16;;;;;;;10.38;6.35;;;12.60;99.90;;;;;;4991924;28;20033;-91
2024/04/02 11:17:42;;;;;;;11.98;6.20;;;12.60;99.90;;;;;;4976528;28;20046;-92
2024/04/02 11:20:12;;;;;;;12.43;5.97;;;12.60;99.90;;;;;;4993299;28;20088;-91
2024/04/02 11:25:26;;;;;;;11.15;5.63;;;12.70;99.90;;;;;;4989717;28;20272;-90
2024/04/02 11:28:03;;;;;;;10.10;5.20;;;12.60;99.90;;;;;;5007768;28;20120;-89
2024/04/02 11:30:28;;;;;;;13.20;5.88;;;12.60;99.90;;;;;;4978338;28;20132;-93
2024/04/02 11:32:55;;;;;;;8.73;4.72;;;12.60;99.90;;;;;;4994897;28;20128;-91
2024/04/02 11:35:21;;;;;;;9.55;5.22;;;12.60;99.90;;;;;;4974582;28;20068;-91
2024/04/02 11:37:48;;;;;;;10.55;5.57;;;12.60;99.90;;;;;;4975958;28;20049;-91
2024/04/02 11:40:21;;;;;;;11.05;6.18;;;12.60;99.90;;;;;;5011008;28;20053;-90
2024/04/02 11:42:56;;;;;;;11.20;6.55;;;12.60;99.90;;;;;;4976713;28;20081;-91
2024/04/02 11:45:23;;;;;;;10.70;6.43;;;12.60;99.90;;;;;;4976155;28;20048;-94
2024/04/02 11:47:57;;;;;;;11.23;5.43;;;12.60;99.90;;;;;;5023160;28;20406;-91
2024/04/02 11:50:23;;;;;;;8.88;5.53;;;12.60;99.90;;;;;;4982271;28;20439;-93
2024/04/02 11:52:49;;;;;;;12.30;5.78;;;12.50;99.90;;;;;;4974619;28;20089;-92
2024/04/02 11:55:52;;;;;;;10.15;5.75;;;12.40;99.90;;;;;;4978682;28;20453;-92
2024/04/02 12:01:12;;;;;;;11.32;5.32;;;12.50;99.90;;;;;;4989243;28;20616;-91
2024/04/02 12:03:43;;;;;;;8.55;4.05;;;12.50;99.90;;;;;;4976551;28;20046;-87
2024/04/02 12:06:09;;;;;;;8.73;4.30;;;12.60;99.90;;;;;;4992405;28;20168;-89
2024/04/02 12:08:35;;;;;;;10.52;4.38;;;12.70;99.90;;;;;;4991395;28;20033;-91
2024/04/02 12:11:01;;;;;;;8.20;3.70;;;12.70;99.90;;;;;;4975003;28;20483;-90
2024/04/02 12:13:26;;;;;;;9.20;4.53;;;12.70;99.90;;;;;;4976618;28;20128;-92
2024/04/02 12:15:55;;;;;;;7.13;3.22;;;12.70;99.90;;;;;;4977503;28;20045;-89
2024/04/02 12:18:21;;;;;;;9.02;3.72;;;12.70;99.90;;;;;;4976461;28;20049;-91
2024/04/02 12:20:47;;;;;;;7.68;3.45;;;12.60;99.90;;;;;;4977393;28;20074;-93
2024/04/02 12:23:19;;;;;;;7.32;3.03;;;12.60;99.90;;;;;;4973764;28;20073;-93
2024/04/02 12:25:47;;;;;;;6.75;3.00;;;12.70;99.90;;;;;;5027010;28;20042;-93
2024/04/02 12:28:12;;;;;;;6.07;2.25;;;12.70;99.90;;;;;;4976435;28;20132;-91
2024/04/02 12:30:41;;;;;;;8.20;2.60;;;12.80;99.90;;;;;;4977081;28;20133;-91
2024/04/02 12:33:17;;;;;;;7.90;3.17;;;12.90;99.90;;;;;;4990900;28;20613;-92
2024/04/02 12:35:44;;;;;;;9.32;2.92;;;12.90;99.90;;;;;;5001348;28;20062;-91
2024/04/02 12:38:10;;;;;;;7.68;3.53;;;12.90;99.90;;;;;;4994720;28;20417;-89
2024/04/02 12:40:39;;;;;;;7.90;3.40;;;12.90;99.90;;;;;;4976094;28;20132;-92
2024/04/02 12:43:06;;;;;;;8.68;3.70;;;12.90;99.90;;;;;;4975531;28;20042;-90
2024/04/02 12:45:33;;;;;;;9.50;3.65;;;12.90;99.90;;;;;;4993798;28;20045;-90
2024/04/02 12:47:59;;;;;;;15.93;11.30;;;12.90;99.90;;;;;;4974890;28;20074;-91
2024/04/02 12:50:25;;;;;;;12.00;4.50;;;13.00;99.90;;;;;;4990338;28;20084;-90
2024/04/02 12:52:50;;;;;;;8.45;4.22;;;13.00;99.90;;;;;;4973428;28;20050;-91
2024/04/02 12:55:16;;;;;;;9.73;4.60;;;12.90;99.90;;;;;;4972678;28;20564;-92